createdAt,value
2022-09-22T00:08:50.503Z,85.45
2022-09-22T00:18:22.334Z,87.07
2022-09-22T00:27:58.006Z,88.43
2022-09-22T00:37:30.106Z,89.07
2022-09-22T00:47:04.097Z,89.05
2022-09-22T00:56:39.521Z,89.50
2022-09-22T01:06:11.707Z,89.85
2022-09-22T01:15:45.539Z,90.52
2022-09-22T01:25:20.698Z,91.44
2022-09-22T01:34:52.880Z,91.24
2022-09-22T01:44:26.631Z,91.88
2022-09-22T01:54:02.021Z,92.60
2022-09-22T02:03:34.292Z,92.83
2022-09-22T02:13:08.417Z,93.33
2022-09-22T02:22:44.023Z,93.62
2022-09-22T02:32:17.662Z,93.01
2022-09-22T02:41:49.664Z,93.73
2022-09-22T02:51:23.559Z,93.85
2022-09-22T03:00:58.888Z,94.13
2022-09-22T03:10:32.891Z,94.79
2022-09-22T03:20:06.796Z,94.82
2022-09-22T03:29:40.322Z,95.27
2022-09-22T03:39:12.744Z,95.04
2022-09-22T03:48:48.080Z,95.75
2022-09-22T03:58:19.867Z,95.90
2022-09-22T04:07:53.984Z,96.16
2022-09-22T04:17:28.112Z,95.74
2022-09-22T04:27:18.904Z,95.91
2022-09-22T04:36:35.675Z,95.57
2022-09-22T04:46:09.710Z,95.58
2022-09-22T04:55:45.286Z,95.69
2022-09-22T05:05:17.435Z,96.17
2022-09-22T05:14:51.208Z,96.35
2022-09-22T05:24:25.115Z,96.34
2022-09-22T05:33:59.158Z,96.28
2022-09-22T05:43:33.134Z,96.31
2022-09-22T05:53:08.315Z,97.16
2022-09-22T06:02:42.815Z,97.50
2022-09-22T06:12:14.948Z,97.52
2022-09-22T06:21:48.727Z,97.68
2022-09-22T06:31:22.452Z,98.15
2022-09-22T06:40:57.962Z,98.74
2022-09-22T06:50:30.879Z,99.77
2022-09-22T07:00:05.383Z,100.00
2022-09-22T07:09:40.275Z,100.00
2022-09-22T07:19:14.885Z,100.00
2022-09-22T07:28:50.090Z,97.73
2022-09-22T07:29:52.613Z,97.76
2022-09-22T07:39:26.713Z,94.60
2022-09-22T07:49:03.227Z,89.12
2022-09-22T07:58:38.396Z,86.38
2022-09-22T08:08:11.454Z,85.30
2022-09-22T08:17:46.308Z,83.71
2022-09-22T08:27:21.021Z,79.44
2022-09-22T08:28:25.119Z,78.69
2022-09-22T08:29:29.049Z,78.02
2022-09-22T08:30:31.533Z,78.89
2022-09-22T08:31:33.974Z,79.23
2022-09-22T08:32:36.354Z,79.09
2022-09-22T08:33:38.849Z,80.02
2022-09-22T08:34:41.294Z,78.67
2022-09-22T08:35:45.294Z,79.36
2022-09-22T08:36:47.765Z,77.93
2022-09-22T08:37:50.280Z,77.34
2022-09-22T08:47:23.182Z,77.58
2022-09-22T08:48:27.302Z,78.34
2022-09-22T08:58:01.038Z,74.87
2022-09-22T08:59:03.351Z,74.64
2022-09-22T09:00:07.537Z,76.02
2022-09-22T09:01:11.459Z,76.88
2022-09-22T09:02:16.338Z,75.98
2022-09-22T09:03:18.624Z,76.32
2022-09-22T09:04:21.077Z,71.75
2022-09-22T09:05:23.519Z,71.72
2022-09-22T09:06:26.010Z,71.43
2022-09-22T09:07:30.025Z,71.29
2022-09-22T09:08:34.000Z,72.27
2022-09-22T09:09:36.395Z,73.32
2022-09-22T09:10:38.820Z,72.52
2022-09-22T09:11:41.225Z,70.84
2022-09-22T09:12:43.886Z,72.00
2022-09-22T09:13:46.294Z,71.07
2022-09-22T09:14:50.369Z,72.05
2022-09-22T09:15:54.258Z,72.24
2022-09-22T09:16:56.578Z,73.18
2022-09-22T09:17:59.048Z,73.29
2022-09-22T09:19:01.494Z,73.75
2022-09-22T09:20:03.973Z,73.61
2022-09-22T09:21:06.468Z,73.32
2022-09-22T09:22:08.951Z,72.99
2022-09-22T09:23:13.046Z,73.71
2022-09-22T09:25:27.034Z,67.30
2022-09-22T09:26:20.238Z,66.13
2022-09-22T09:27:22.731Z,67.04
2022-09-22T09:36:57.468Z,70.34
2022-09-22T09:37:59.840Z,67.18
2022-09-22T09:39:03.972Z,66.47
2022-09-22T09:40:06.370Z,67.42
2022-09-22T09:41:08.756Z,68.84
2022-09-22T09:42:11.238Z,69.07
2022-09-22T09:43:15.265Z,68.31
2022-09-22T09:44:20.292Z,69.34
2022-09-22T09:45:20.120Z,71.14
2022-09-22T09:46:22.741Z,69.37
2022-09-22T09:47:25.175Z,67.63
2022-09-22T09:48:29.266Z,68.92
2022-09-22T09:49:31.583Z,67.01
2022-09-22T09:59:04.381Z,66.42
2022-09-22T10:00:08.458Z,67.47
2022-09-22T10:01:12.466Z,67.16
2022-09-22T10:02:14.867Z,66.01
2022-09-22T10:03:17.365Z,66.14
2022-09-22T10:04:21.377Z,65.20
2022-09-22T10:05:23.623Z,64.82
2022-09-22T10:06:27.684Z,61.99
2022-09-22T10:08:32.452Z,61.31
2022-09-22T10:09:34.890Z,60.16
2022-09-22T10:10:37.367Z,61.97
2022-09-22T10:11:39.798Z,62.67
2022-09-22T10:12:43.867Z,63.30
2022-09-22T10:13:46.183Z,62.86
2022-09-22T10:14:50.267Z,64.17
2022-09-22T10:15:52.633Z,65.23
2022-09-22T10:16:55.018Z,59.96
2022-09-22T10:17:57.481Z,60.33
2022-09-22T10:18:59.893Z,62.73
2022-09-22T10:20:02.346Z,63.39
2022-09-22T10:21:06.392Z,58.82
2022-09-22T10:22:08.758Z,59.70
2022-09-22T10:23:11.279Z,61.98
2022-09-22T10:24:14.759Z,59.46
2022-09-22T10:25:17.140Z,59.36
2022-09-22T10:26:21.241Z,57.84
2022-09-22T10:27:25.229Z,58.15
2022-09-22T10:28:27.571Z,60.04
2022-09-22T10:29:29.975Z,56.93
2022-09-22T10:30:32.407Z,56.34
2022-09-22T10:31:35.032Z,58.82
2022-09-22T10:32:37.354Z,60.33
2022-09-22T10:33:43.766Z,58.42
2022-09-22T10:35:49.413Z,57.06
2022-09-22T10:36:51.754Z,56.68
2022-09-22T10:37:55.759Z,57.92
2022-09-22T10:38:59.510Z,56.60
2022-09-22T10:40:00.548Z,55.77
2022-09-22T10:41:03.016Z,56.74
2022-09-22T10:42:05.470Z,56.09
2022-09-22T10:43:09.570Z,55.73
2022-09-22T10:44:34.927Z,56.49
2022-09-22T10:45:15.969Z,56.21
2022-09-22T10:46:18.425Z,55.64
2022-09-22T10:47:24.877Z,56.83
2022-09-22T10:48:23.271Z,55.74
2022-09-22T10:49:27.352Z,58.20
2022-09-22T10:50:31.343Z,54.35
2022-09-22T10:51:33.591Z,54.12
2022-09-22T10:52:37.616Z,55.60
2022-09-22T10:53:41.593Z,58.33
2022-09-22T10:54:43.924Z,56.54
2022-09-22T10:55:46.367Z,57.19
2022-09-22T10:56:48.843Z,55.17
2022-09-22T10:57:52.986Z,56.63
2022-09-22T10:58:56.837Z,55.80
2022-09-22T11:00:00.807Z,53.71
2022-09-22T11:01:04.697Z,53.34
2022-09-22T11:02:07.074Z,53.22
2022-09-22T11:03:09.535Z,55.49
2022-09-22T11:04:13.642Z,53.46
2022-09-22T11:05:15.894Z,54.38
2022-09-22T11:06:18.350Z,55.15
2022-09-22T11:07:20.883Z,53.72
2022-09-22T11:08:25.075Z,56.14
2022-09-22T11:09:29.091Z,57.22
2022-09-22T11:10:32.944Z,53.74
2022-09-22T11:11:38.790Z,56.33
2022-09-22T11:12:39.235Z,55.36
2022-09-22T11:13:43.314Z,56.84
2022-09-22T11:14:45.641Z,55.12
2022-09-22T11:15:48.246Z,53.88
2022-09-22T11:16:50.653Z,53.87
2022-09-22T11:17:53.052Z,53.00
2022-09-22T11:18:55.510Z,53.38
2022-09-22T11:19:57.967Z,54.46
2022-09-22T11:21:00.427Z,53.76
2022-09-22T11:22:02.878Z,52.91
2022-09-22T11:23:09.119Z,53.49
2022-09-22T11:24:11.379Z,53.42
2022-09-22T11:25:13.815Z,51.63
2022-09-22T11:26:17.928Z,52.23
2022-09-22T11:27:20.240Z,51.52
2022-09-22T11:28:24.316Z,53.04
2022-09-22T11:29:28.300Z,54.28
2022-09-22T11:30:32.204Z,51.84
2022-09-22T11:31:36.210Z,53.01
2022-09-22T11:32:40.103Z,52.52
2022-09-22T11:33:42.505Z,53.97
2022-09-22T11:34:44.979Z,51.35
2022-09-22T11:35:47.417Z,53.01
2022-09-22T11:36:51.697Z,50.46
2022-09-22T11:37:52.393Z,50.65
2022-09-22T11:38:54.901Z,53.14
2022-09-22T11:39:57.359Z,55.27
2022-09-22T11:40:59.869Z,52.87
2022-09-22T11:42:02.313Z,54.25
2022-09-22T11:43:04.880Z,53.53
2022-09-22T11:44:09.098Z,50.42
2022-09-22T11:45:11.400Z,51.64
2022-09-22T11:46:15.566Z,50.90
2022-09-22T11:47:17.836Z,51.12
2022-09-22T11:48:22.920Z,52.74
2022-09-22T11:49:25.183Z,53.47
2022-09-22T11:50:27.612Z,50.94
2022-09-22T11:51:30.140Z,49.66
2022-09-22T11:52:32.668Z,52.23
2022-09-22T11:53:36.789Z,53.46
2022-09-22T11:54:39.103Z,50.22
2022-09-22T11:55:41.604Z,52.19
2022-09-22T11:56:44.127Z,50.16
2022-09-22T11:57:46.602Z,49.16
2022-09-22T11:58:48.997Z,50.61
2022-09-22T11:59:51.513Z,52.57
2022-09-22T12:00:55.665Z,53.04
2022-09-22T12:01:58.010Z,50.74
2022-09-22T12:03:02.223Z,53.02
2022-09-22T12:04:02.895Z,52.43
2022-09-22T12:05:05.441Z,52.76
2022-09-22T12:06:09.464Z,52.51
2022-09-22T12:07:12.906Z,53.95
2022-09-22T12:08:15.284Z,53.96
2022-09-22T12:09:17.761Z,54.00
2022-09-22T12:10:22.058Z,53.65
2022-09-22T12:11:24.354Z,49.97
2022-09-22T12:12:26.800Z,51.55
2022-09-22T12:13:29.274Z,51.43
2022-09-22T12:14:31.759Z,50.53
2022-09-22T12:15:34.309Z,51.14
2022-09-22T12:16:36.710Z,52.18
2022-09-22T12:17:40.778Z,51.17
2022-09-22T12:18:43.198Z,51.77
2022-09-22T12:19:45.752Z,50.61
2022-09-22T12:20:48.146Z,53.39
2022-09-22T12:21:52.242Z,54.21
2022-09-22T12:22:56.190Z,49.86
2022-09-22T12:23:58.668Z,51.88
2022-09-22T12:25:01.038Z,51.68
2022-09-22T12:26:03.572Z,52.37
2022-09-22T12:27:07.676Z,51.23
2022-09-22T12:28:11.593Z,50.23
2022-09-22T12:29:13.987Z,51.01
2022-09-22T12:30:16.448Z,52.29
2022-09-22T12:31:19.119Z,52.38
2022-09-22T12:32:22.998Z,51.85
2022-09-22T12:33:25.402Z,48.92
2022-09-22T12:34:27.827Z,48.26
2022-09-22T12:35:30.930Z,47.93
2022-09-22T12:36:35.428Z,49.80
2022-09-22T12:37:37.747Z,50.74
2022-09-22T12:38:40.199Z,47.54
2022-09-22T12:39:42.709Z,47.75
2022-09-22T12:40:45.208Z,48.15
2022-09-22T12:41:49.280Z,48.35
2022-09-22T12:42:51.627Z,49.57
2022-09-22T12:43:55.710Z,49.18
2022-09-22T12:44:58.028Z,47.98
2022-09-22T12:46:02.123Z,47.22
2022-09-22T12:47:06.142Z,46.06
2022-09-22T12:48:10.507Z,47.14
2022-09-22T12:49:12.514Z,49.19
2022-09-22T12:50:16.594Z,49.27
2022-09-22T12:51:20.545Z,45.42
2022-09-22T12:52:22.990Z,46.45
2022-09-22T12:53:27.097Z,44.85
2022-09-22T12:54:29.398Z,47.54
2022-09-22T12:55:31.843Z,46.32
2022-09-22T12:56:35.938Z,45.79
2022-09-22T12:57:39.344Z,45.03
2022-09-22T12:58:44.692Z,45.60
2022-09-22T12:59:48.490Z,47.02
2022-09-22T13:00:50.881Z,47.57
2022-09-22T13:01:53.406Z,45.92
2022-09-22T13:02:57.392Z,44.15
2022-09-22T13:03:59.750Z,44.47
2022-09-22T13:05:02.224Z,45.71
2022-09-22T13:06:06.316Z,46.40
2022-09-22T13:07:08.698Z,45.97
2022-09-22T13:08:11.134Z,44.27
2022-09-22T13:09:13.706Z,43.60
2022-09-22T13:10:17.714Z,44.57
2022-09-22T13:11:20.121Z,42.86
2022-09-22T13:12:22.577Z,44.54
2022-09-22T13:13:25.091Z,45.65
2022-09-22T13:14:29.138Z,42.67
2022-09-22T13:15:31.556Z,42.23
2022-09-22T13:16:35.693Z,42.28
2022-09-22T13:17:39.538Z,45.44
2022-09-22T13:18:43.514Z,43.41
2022-09-22T13:19:45.824Z,45.34
2022-09-22T13:20:48.305Z,42.88
2022-09-22T13:21:50.753Z,44.17
2022-09-22T13:22:53.237Z,43.98
2022-09-22T13:23:57.360Z,44.83
2022-09-22T13:25:01.267Z,45.97
2022-09-22T13:26:03.579Z,45.73
2022-09-22T13:27:06.104Z,46.37
2022-09-22T13:28:08.555Z,44.01
2022-09-22T13:29:11.031Z,42.69
2022-09-22T13:30:13.480Z,43.57
2022-09-22T13:31:16.006Z,45.18
2022-09-22T13:32:18.889Z,47.16
2022-09-22T13:33:20.904Z,45.56
2022-09-22T13:34:23.387Z,48.14
2022-09-22T13:35:27.485Z,48.48
2022-09-22T13:36:29.856Z,48.79
2022-09-22T13:37:33.908Z,47.37
2022-09-22T13:38:37.949Z,43.89
2022-09-22T13:39:46.379Z,44.16
2022-09-22T13:40:44.300Z,45.39
2022-09-22T13:41:48.536Z,44.20
2022-09-22T13:42:52.497Z,44.86
2022-09-22T13:43:56.413Z,43.67
2022-09-22T13:44:58.841Z,45.08
2022-09-22T13:46:01.304Z,44.03
2022-09-22T13:47:03.739Z,48.41
2022-09-22T13:48:08.569Z,50.68
2022-09-22T13:49:10.227Z,48.01
2022-09-22T13:50:12.758Z,45.19
2022-09-22T13:59:46.780Z,42.63
2022-09-22T14:01:11.844Z,43.20
2022-09-22T14:01:55.008Z,42.73
2022-09-22T14:02:57.401Z,42.27
2022-09-22T14:04:01.362Z,41.35
2022-09-22T14:05:03.740Z,42.11
2022-09-22T14:06:07.809Z,42.57
2022-09-22T14:07:10.149Z,40.76
2022-09-22T14:08:17.162Z,42.42
2022-09-22T14:09:18.174Z,42.42
2022-09-22T14:10:22.153Z,39.69
2022-09-22T14:11:24.457Z,41.82
2022-09-22T14:12:26.927Z,41.95
2022-09-22T14:13:31.060Z,41.50
2022-09-22T14:14:34.996Z,42.30
2022-09-22T14:15:37.325Z,40.71
2022-09-22T14:16:39.779Z,40.39
2022-09-22T14:17:42.298Z,41.90
2022-09-22T14:18:44.810Z,40.94
2022-09-22T14:19:47.242Z,41.85
2022-09-22T14:20:51.425Z,42.31
2022-09-22T14:21:53.751Z,44.63
2022-09-22T14:22:56.285Z,44.26
2022-09-22T14:23:58.783Z,42.15
2022-09-22T14:25:03.025Z,41.55
2022-09-22T14:26:06.993Z,41.07
2022-09-22T14:27:09.345Z,43.16
2022-09-22T14:28:11.850Z,40.93
2022-09-22T14:29:15.992Z,41.60
2022-09-22T14:30:19.977Z,42.04
2022-09-22T14:31:22.462Z,41.58
2022-09-22T14:32:26.488Z,43.81
2022-09-22T14:33:28.844Z,43.54
2022-09-22T14:34:31.326Z,43.03
2022-09-22T14:35:33.867Z,41.69
2022-09-22T14:36:36.333Z,43.65
2022-09-22T14:37:40.347Z,43.56
2022-09-22T14:38:51.302Z,44.24
2022-09-22T14:39:47.633Z,41.66
2022-09-22T14:40:50.216Z,41.65
2022-09-22T14:41:52.546Z,40.93
2022-09-22T14:42:56.639Z,38.79
2022-09-22T14:43:58.920Z,41.49
2022-09-22T14:45:01.433Z,40.38
2022-09-22T14:46:07.488Z,43.31
2022-09-22T14:47:06.449Z,42.17
2022-09-22T14:48:08.971Z,42.74
2022-09-22T14:49:11.499Z,39.41
2022-09-22T14:50:13.961Z,41.14
2022-09-22T14:51:16.388Z,40.16
2022-09-22T14:52:18.879Z,42.11
2022-09-22T14:53:23.074Z,42.65
2022-09-22T14:54:25.333Z,40.89
2022-09-22T14:55:27.892Z,41.35
2022-09-22T14:56:31.974Z,41.33
2022-09-22T14:57:34.331Z,43.56
2022-09-22T14:58:40.244Z,41.82
2022-09-22T14:59:40.943Z,41.56
2022-09-22T15:00:43.330Z,39.97
2022-09-22T15:01:47.600Z,40.81
2022-09-22T15:02:49.751Z,41.24
2022-09-22T15:03:52.274Z,39.43
2022-09-22T15:04:54.742Z,39.60
2022-09-22T15:05:57.173Z,39.99
2022-09-22T15:06:59.457Z,42.17
2022-09-22T15:08:01.958Z,41.40
2022-09-22T15:09:04.547Z,42.92
2022-09-22T15:10:06.919Z,41.56
2022-09-22T15:11:09.479Z,40.54
2022-09-22T15:12:12.963Z,41.43
2022-09-22T15:13:15.379Z,42.38
2022-09-22T15:14:17.873Z,40.93
2022-09-22T15:15:22.013Z,41.40
2022-09-22T15:16:29.985Z,42.08
2022-09-22T15:17:32.000Z,39.31
2022-09-22T15:18:34.604Z,39.42
2022-09-22T15:19:37.021Z,41.34
2022-09-22T15:20:39.471Z,41.03
2022-09-22T15:21:41.986Z,39.88
2022-09-22T15:22:44.438Z,43.25
2022-09-22T15:23:48.644Z,40.27
2022-09-22T15:24:50.938Z,40.56
2022-09-22T15:25:53.445Z,41.49
2022-09-22T15:26:55.970Z,40.25
2022-09-22T15:28:00.099Z,40.17
2022-09-22T15:29:02.442Z,39.31
2022-09-22T15:30:05.010Z,40.74
2022-09-22T15:31:07.522Z,38.46
2022-09-22T15:32:11.660Z,38.72
2022-09-22T15:33:14.134Z,38.46
2022-09-22T15:34:18.190Z,37.74
2022-09-22T15:35:21.573Z,37.42
2022-09-22T15:36:24.983Z,38.15
2022-09-22T15:37:27.409Z,38.18
2022-09-22T15:38:29.889Z,38.46
2022-09-22T15:39:34.005Z,38.38
2022-09-22T15:40:36.482Z,37.91
2022-09-22T15:41:40.438Z,40.70
2022-09-22T15:42:56.859Z,38.30
2022-09-22T15:43:47.007Z,36.58
2022-09-22T15:44:49.494Z,36.09
2022-09-22T15:45:52.022Z,36.99
2022-09-22T15:46:54.524Z,37.93
2022-09-22T15:47:57.002Z,38.46
2022-09-22T15:48:59.657Z,38.54
2022-09-22T15:50:04.681Z,37.51
2022-09-22T15:51:07.005Z,37.15
2022-09-22T15:52:11.222Z,36.82
2022-09-22T15:53:13.482Z,37.38
2022-09-22T15:54:15.913Z,35.94
2022-09-22T15:55:19.999Z,36.17
2022-09-22T15:56:24.026Z,38.25
2022-09-22T15:57:26.388Z,36.57
2022-09-22T15:58:28.830Z,38.91
2022-09-22T15:59:31.393Z,38.59
2022-09-22T16:00:35.483Z,36.46
2022-09-22T16:01:43.010Z,36.24
2022-09-22T16:02:46.736Z,35.41
2022-09-22T16:03:50.655Z,35.68
2022-09-22T16:04:54.705Z,36.87
2022-09-22T16:05:57.056Z,38.03
2022-09-22T16:07:01.166Z,38.27
2022-09-22T16:08:05.108Z,37.09
2022-09-22T16:09:09.021Z,37.26
2022-09-22T16:10:11.411Z,35.29
2022-09-22T16:11:13.879Z,36.85
2022-09-22T16:12:17.959Z,38.53
2022-09-22T16:13:20.525Z,37.31
2022-09-22T16:14:22.962Z,37.44
2022-09-22T16:15:26.976Z,37.89
2022-09-22T16:16:29.401Z,37.19
2022-09-22T16:17:31.848Z,36.66
2022-09-22T16:18:34.294Z,35.72
2022-09-22T16:19:36.759Z,35.13
2022-09-22T16:20:39.249Z,36.39
2022-09-22T16:21:41.782Z,35.54
2022-09-22T16:22:44.207Z,37.22
2022-09-22T16:23:46.718Z,37.72
2022-09-22T16:24:50.256Z,38.29
2022-09-22T16:25:52.686Z,37.82
2022-09-22T16:26:55.115Z,40.25
2022-09-22T16:27:59.227Z,41.15
2022-09-22T16:29:01.581Z,41.52
2022-09-22T16:30:03.991Z,40.18
2022-09-22T16:31:08.123Z,41.17
2022-09-22T16:32:11.978Z,41.31
2022-09-22T16:33:14.332Z,42.07
2022-09-22T16:34:16.791Z,42.93
2022-09-22T16:35:20.845Z,43.86
2022-09-22T16:36:23.177Z,45.05
2022-09-22T16:37:25.662Z,42.88
2022-09-22T16:38:28.172Z,42.55
2022-09-22T16:39:32.174Z,42.62
2022-09-22T16:40:34.585Z,42.12
2022-09-22T16:41:37.000Z,41.34
2022-09-22T16:42:39.445Z,42.04
2022-09-22T16:43:43.489Z,42.45
2022-09-22T16:44:47.386Z,42.10
2022-09-22T16:45:49.788Z,43.00
2022-09-22T16:46:53.211Z,42.65
2022-09-22T16:47:55.506Z,43.71
2022-09-22T16:48:58.008Z,43.26
2022-09-22T16:50:02.074Z,45.03
2022-09-22T16:51:04.448Z,44.19
2022-09-22T16:52:06.946Z,44.18
2022-09-22T16:53:09.339Z,46.11
2022-09-22T16:54:11.794Z,46.04
2022-09-22T16:55:14.262Z,45.36
2022-09-22T16:56:18.378Z,46.70
2022-09-22T16:57:20.733Z,45.68
2022-09-22T16:58:24.777Z,46.84
2022-09-22T16:59:27.149Z,45.44
2022-09-22T17:00:29.720Z,46.46
2022-09-22T17:01:32.161Z,47.22
2022-09-22T17:02:34.647Z,46.85
2022-09-22T17:03:37.132Z,45.91
2022-09-22T17:04:39.590Z,46.39
2022-09-22T17:05:43.694Z,46.48
2022-09-22T17:06:46.029Z,45.89
2022-09-22T17:07:48.491Z,45.62
2022-09-22T17:08:50.976Z,45.78
2022-09-22T17:09:53.422Z,46.26
2022-09-22T17:10:57.462Z,46.30
2022-09-22T17:11:59.804Z,47.26
2022-09-22T17:13:03.863Z,47.55
2022-09-22T17:14:11.449Z,47.11
2022-09-22T17:15:10.132Z,48.17
2022-09-22T17:16:12.679Z,49.18
2022-09-22T17:17:15.133Z,50.68
2022-09-22T17:18:17.598Z,49.21
2022-09-22T17:19:20.087Z,50.11
2022-09-22T17:20:22.460Z,50.72
2022-09-22T17:21:24.890Z,50.67
2022-09-22T17:22:28.987Z,50.25
2022-09-22T17:23:31.266Z,50.33
2022-09-22T17:24:35.317Z,49.88
2022-09-22T17:25:38.087Z,50.34
2022-09-22T17:26:42.039Z,50.58
2022-09-22T17:27:45.899Z,50.45
2022-09-22T17:37:15.669Z,54.80
2022-09-22T17:46:49.165Z,57.36
2022-09-22T17:56:23.664Z,59.60
2022-09-22T18:05:55.242Z,61.45
2022-09-22T18:15:28.762Z,62.30
2022-09-22T18:25:02.314Z,61.92
2022-09-22T18:34:36.177Z,63.14
2022-09-22T18:44:10.109Z,64.75
2022-09-22T18:53:44.076Z,64.97
2022-09-22T19:03:17.719Z,65.69
2022-09-22T19:12:53.171Z,66.16
2022-09-22T19:22:25.332Z,66.17
2022-09-22T19:31:59.484Z,66.81
2022-09-22T19:41:34.998Z,67.14
2022-09-22T19:51:07.347Z,67.62
2022-09-22T20:00:44.913Z,67.39
2022-09-22T20:10:17.788Z,67.41
2022-09-22T20:19:50.823Z,67.70
2022-09-22T20:29:25.016Z,68.53
2022-09-22T20:38:58.266Z,68.70
2022-09-22T20:48:30.804Z,69.45
2022-09-22T20:58:04.497Z,70.13
2022-09-22T21:07:40.622Z,70.15
2022-09-22T21:17:14.254Z,70.83
2022-09-22T21:18:18.177Z,70.96
2022-09-22T21:27:49.433Z,71.30
2022-09-22T21:37:23.199Z,72.18
2022-09-22T21:46:55.559Z,73.97
2022-09-22T21:56:29.352Z,76.00
2022-09-22T22:06:03.968Z,77.62
2022-09-22T22:15:37.868Z,79.02
2022-09-22T22:25:10.114Z,80.20
2022-09-22T22:34:45.532Z,81.04
2022-09-22T22:44:17.524Z,81.38
2022-09-22T22:53:52.763Z,80.98
2022-09-22T23:03:24.494Z,82.07
2022-09-22T23:12:58.307Z,82.98
2022-09-22T23:22:31.986Z,83.60
2022-09-22T23:32:07.406Z,83.44
2022-09-22T23:41:39.138Z,84.11
2022-09-22T23:51:15.816Z,84.81
